Time;durP1;ratioP1;P1;durP2;ratioP2;P2;SDS_P1;SDS_P2;PMS_P1;PMS_P2;Temp;Humidity;BMP_temperature;BMP_pressure;BME280_temperature;BME280_humidity;BME280_pressure;Samples;Min_cycle;Max_cycle;Signal;HPM_P1;HPM_P2
2021/12/05 00:16:51;;;;;;;0.47;0.40;;;;;;;4.21;86.97;99774.38;4982920;28;96789;-34
2021/12/05 00:20:42;;;;;;;1.48;0.77;;;;;;;4.15;86.48;99799.69;4974791;28;96416;-34
2021/12/05 00:23:13;;;;;;;1.50;1.30;;;;;;;4.18;86.68;99799.53;4974863;28;98907;-34
2021/12/05 00:25:41;;;;;;;5.43;1.25;;;;;;;4.18;86.08;99801.34;4973714;28;100721;-34
2021/12/05 01:00:27;;;;;;;0.77;0.55;;;;;;;4.14;86.53;99775.63;4975308;28;96499;-34
2021/12/05 01:15:51;;;;;;;0.60;0.60;;;;;;;4.20;85.89;99789.59;4973088;28;97929;-34
2021/12/05 01:18:18;;;;;;;0.93;0.50;;;;;;;4.13;86.41;99776.59;4972948;28;100827;-34
2021/12/05 01:20:53;;;;;;;1.02;0.68;;;;;;;4.13;86.39;99773.91;4974561;28;97201;-34
2021/12/05 01:23:50;;;;;;;0.32;0.30;;;;;;;4.12;86.37;99774.84;4973357;28;96679;-34
2021/12/05 01:26:11;;;;;;;3.40;0.73;;;;;;;4.06;85.68;99778.72;4974013;28;97291;-35
2021/12/05 01:56:15;;;;;;;0.47;0.38;;;;;;;4.00;86.85;99777.25;4974756;28;96864;-34
2021/12/05 01:58:53;;;;;;;1.90;1.67;;;;;;;3.96;86.67;99777.47;4973226;28;98666;-34
2021/12/05 02:09:37;;;;;;;2.05;0.50;;;;;;;4.03;87.12;99786.94;4977560;28;97037;-34
2021/12/05 02:33:56;;;;;;;6.63;1.55;;;;;;;3.96;88.02;99780.16;4976590;28;97931;-34
2021/12/05 02:39:11;;;;;;;4.63;0.57;;;;;;;4.01;87.79;99783.47;4976841;28;96662;-34
2021/12/05 02:41:40;;;;;;;0.63;0.45;;;;;;;4.01;87.78;99788.81;4976758;28;98295;-34
2021/12/05 02:44:14;;;;;;;2.60;0.88;;;;;;;3.92;87.61;99776.75;4976062;28;97795;-34
2021/12/05 02:46:44;;;;;;;1.13;1.05;;;;;;;3.89;87.50;99773.38;4976784;28;96793;-34
2021/12/05 02:49:12;;;;;;;9.10;1.30;;;;;;;3.98;87.99;99786.28;4975645;28;96839;-34
2021/12/05 02:51:38;;;;;;;0.20;0.20;;;;;;;3.96;88.09;99783.69;4976283;28;97826;-34
2021/12/05 02:54:07;;;;;;;1.40;0.75;;;;;;;3.94;88.16;99779.38;4976145;28;97768;-34
2021/12/05 02:56:38;;;;;;;2.97;1.35;;;;;;;3.96;88.37;99783.69;4974506;28;96629;-34
2021/12/05 02:59:19;;;;;;;0.77;0.57;;;;;;;3.94;88.15;99776.69;4975200;28;96715;-34
2021/12/05 03:01:49;;;;;;;1.20;1.10;;;;;;;3.94;88.70;99771.31;4975823;28;97899;-34
2021/12/05 03:04:14;;;;;;;1.88;1.05;;;;;;;3.96;88.32;99777.47;4974781;28;101267;-34
2021/12/05 03:06:49;;;;;;;1.05;1.00;;;;;;;3.94;88.69;99776.69;4975161;28;96551;-34
2021/12/05 03:09:15;;;;;;;2.88;1.27;;;;;;;3.94;88.84;99788.25;4976061;28;96669;-34
2021/12/05 03:11:43;;;;;;;3.72;0.77;;;;;;;3.89;88.85;99778.75;4973382;28;100499;-34
2021/12/05 03:14:09;;;;;;;1.48;1.25;;;;;;;3.93;88.34;99786.53;4974838;28;100897;-34
2021/12/05 03:16:36;;;;;;;3.53;1.33;;;;;;;3.95;88.86;99787.31;4976416;28;96495;-34
2021/12/05 03:19:04;;;;;;;2.92;1.33;;;;;;;3.91;88.20;99784.84;4974782;28;96840;-34
2021/12/05 03:21:29;;;;;;;3.85;0.82;;;;;;;3.88;88.28;99774.31;4974059;28;100823;-34
2021/12/05 03:23:55;;;;;;;0.68;0.68;;;;;;;3.91;88.83;99785.75;4975679;28;98384;-34
2021/12/05 03:26:24;;;;;;;1.05;0.80;;;;;;;3.94;88.70;99776.69;4974776;28;96536;-34
2021/12/05 03:28:51;;;;;;;1.73;0.77;;;;;;;3.94;89.06;99784.72;4974285;28;96862;-34
2021/12/05 03:31:17;;;;;;;4.90;0.45;;;;;;;3.90;88.60;99767.94;4974218;28;101368;-34
2021/12/05 03:33:42;;;;;;;1.15;0.85;;;;;;;3.88;89.40;99772.50;4975928;28;97314;-34
2021/12/05 03:36:09;;;;;;;2.63;1.10;;;;;;;3.88;89.33;99768.94;4976108;28;96427;-34
2021/12/05 03:38:36;;;;;;;0.47;0.40;;;;;;;3.79;89.46;99764.91;4974883;28;96774;-34
2021/12/05 03:41:02;;;;;;;2.30;1.13;;;;;;;3.83;89.45;99771.88;4974202;28;101214;-34
2021/12/05 03:43:28;;;;;;;3.03;0.88;;;;;;;3.84;89.61;99781.66;4974095;28;101060;-34
2021/12/05 03:45:56;;;;;;;1.50;1.00;;;;;;;3.88;89.42;99791.25;4973872;28;96484;-34
2021/12/05 03:48:23;;;;;;;4.70;1.65;;;;;;;3.82;89.38;99779.03;4974345;28;96792;-34
2021/12/05 03:50:49;;;;;;;1.45;1.00;;;;;;;3.85;88.92;99793.22;4957688;28;100784;-34
2021/12/05 03:53:16;;;;;;;8.50;1.25;;;;;;;3.85;88.96;99801.25;4975280;28;96874;-34
2021/12/05 03:55:44;;;;;;;1.02;0.65;;;;;;;3.74;89.33;99786.63;4974470;28;96713;-34
2021/12/05 03:58:10;;;;;;;0.73;0.73;;;;;;;3.80;88.99;99806.84;4974246;28;96889;-34
2021/12/05 04:00:39;;;;;;;1.30;0.82;;;;;;;3.81;89.27;99806.78;4975061;28;98014;-34
2021/12/05 04:03:07;;;;;;;1.10;0.90;;;;;;;3.80;88.94;99801.50;4975556;28;99717;-34
2021/12/05 04:05:34;;;;;;;1.15;0.93;;;;;;;3.73;88.78;99798.25;4973851;28;96688;-34
2021/12/05 04:08:01;;;;;;;2.60;1.70;;;;;;;3.67;88.91;99792.34;4974236;28;97351;-34
2021/12/05 04:10:28;;;;;;;1.23;1.13;;;;;;;3.71;89.08;99799.28;4973304;28;101234;-34
2021/12/05 04:12:54;;;;;;;2.75;0.90;;;;;;;3.63;88.89;99794.31;4975143;28;99634;-34
2021/12/05 04:15:20;;;;;;;0.65;0.47;;;;;;;3.69;88.70;99809.19;4974015;28;96572;-35
2021/12/05 04:17:46;;;;;;;1.23;0.95;;;;;;;3.70;88.60;99803.78;4973982;28;96837;-35
2021/12/05 04:20:13;;;;;;;2.35;1.35;;;;;;;3.71;88.79;99805.50;4975052;28;97673;-35
2021/12/05 04:22:40;;;;;;;0.90;0.70;;;;;;;3.65;89.05;99792.44;4974688;28;97303;-35
2021/12/05 04:25:10;;;;;;;1.23;0.77;;;;;;;3.70;89.06;99803.78;4973820;28;96567;-35
2021/12/05 04:27:41;;;;;;;3.05;1.00;;;;;;;3.66;89.53;99799.50;4974102;28;96676;-34
2021/12/05 04:30:09;;;;;;;1.00;0.90;;;;;;;3.73;89.29;99803.59;4973566;28;100585;-34
2021/12/05 04:32:34;;;;;;;1.55;1.10;;;;;;;3.70;89.57;99795.75;4974455;28;99745;-34
2021/12/05 04:35:00;;;;;;;1.80;0.73;;;;;;;3.74;89.71;99800.00;4972949;28;101110;-34
2021/12/05 04:37:25;;;;;;;17.08;1.30;;;;;;;3.72;89.78;99801.00;4975121;28;96744;-34
2021/12/05 04:39:51;;;;;;;1.45;1.35;;;;;;;3.73;89.89;99797.41;4973273;28;100852;-34
2021/12/05 04:42:17;;;;;;;1.17;1.02;;;;;;;3.80;89.60;99810.38;4975210;28;97410;-34
2021/12/05 04:44:42;;;;;;;0.63;0.52;;;;;;;3.83;89.84;99807.53;4975147;28;96666;-34
2021/12/05 04:47:09;;;;;;;5.32;1.75;;;;;;;3.85;89.57;99804.81;4974928;28;96717;-34
2021/12/05 04:49:35;;;;;;;1.50;1.25;;;;;;;3.86;89.66;99814.56;4974744;28;97388;-34
2021/12/05 04:52:01;;;;;;;1.00;0.85;;;;;;;3.77;89.76;99805.19;4974983;28;97798;-34
2021/12/05 04:54:26;;;;;;;3.50;1.15;;;;;;;3.79;89.64;99802.41;4973287;28;96864;-34
2021/12/05 04:56:52;;;;;;;3.22;1.30;;;;;;;3.79;89.71;99811.34;4974978;28;96737;-34
2021/12/05 04:59:23;;;;;;;0.68;0.52;;;;;;;3.81;89.87;99821.97;4974169;28;97839;-34
2021/12/05 05:01:51;;;;;;;0.80;0.40;;;;;;;3.79;89.62;99822.06;4972729;28;101138;-34
2021/12/05 05:04:27;;;;;;;1.02;0.70;;;;;;;3.80;89.66;99831.81;4974955;28;96586;-34
2021/12/05 05:07:01;;;;;;;0.98;0.85;;;;;;;3.77;89.70;99829.31;4975161;28;96514;-34
2021/12/05 05:09:28;;;;;;;0.93;0.73;;;;;;;3.74;89.20;99829.47;4973062;28;101171;-34
2021/12/05 05:11:54;;;;;;;3.40;0.75;;;;;;;3.78;89.23;99833.69;4972941;28;101201;-34
2021/12/05 05:14:20;;;;;;;0.52;0.40;;;;;;;3.66;89.36;99815.56;4973239;28;96603;-34
2021/12/05 05:16:48;;;;;;;1.60;1.05;;;;;;;3.73;89.41;99841.09;4975307;28;96783;-34
2021/12/05 05:19:16;;;;;;;1.75;0.82;;;;;;;3.69;89.75;99836.84;4972993;28;100822;-34
2021/12/05 05:21:50;;;;;;;0.50;0.50;;;;;;;3.73;89.76;99846.47;4972855;28;101124;-34
2021/12/05 05:40:39;;;;;;;0.70;0.70;;;;;;;3.74;90.24;99861.59;4977645;28;97004;-34
2021/12/05 05:46:50;;;;;;;0.93;0.80;;;;;;;3.69;90.05;99852.91;4975405;28;96567;-35
2021/12/05 05:51:04;;;;;;;1.27;0.52;;;;;;;3.68;89.69;99856.53;4976657;28;97400;-34
2021/12/05 05:53:30;;;;;;;0.88;0.77;;;;;;;3.68;89.85;99851.19;4975668;28;100724;-34
2021/12/05 05:55:56;;;;;;;8.15;2.08;;;;;;;3.68;89.54;99853.84;4975912;28;96660;-34
2021/12/05 05:58:40;;;;;;;1.10;0.68;;;;;;;3.69;89.85;99868.09;4976136;28;96742;-34
2021/12/05 06:01:09;;;;;;;0.93;0.80;;;;;;;3.65;89.71;99866.50;4976710;28;98059;-34
2021/12/05 06:03:35;;;;;;;1.05;0.65;;;;;;;3.70;89.50;99877.91;4975674;28;100760;-35
2021/12/05 06:06:06;;;;;;;0.43;0.43;;;;;;;3.71;89.69;99884.97;4976038;28;96523;-34
2021/12/05 06:08:35;;;;;;;0.50;0.30;;;;;;;3.66;90.05;99876.31;4974338;28;96666;-34
2021/12/05 06:11:05;;;;;;;0.88;0.77;;;;;;;3.66;89.50;99887.88;4975486;28;100572;-34
2021/12/05 06:13:31;;;;;;;1.00;0.75;;;;;;;3.65;90.03;99882.56;4975596;28;101036;-34
2021/12/05 06:15:57;;;;;;;1.70;0.93;;;;;;;3.67;89.53;99883.38;4975479;28;97150;-34
2021/12/05 06:18:22;;;;;;;1.33;0.77;;;;;;;3.63;89.92;99888.03;4977221;28;96523;-34
2021/12/05 06:20:49;;;;;;;1.83;1.08;;;;;;;3.57;89.90;99882.97;4976831;28;97798;-34
2021/12/05 06:23:15;;;;;;;0.30;0.30;;;;;;;3.56;89.46;99882.09;4975629;28;100814;-34
2021/12/05 06:25:44;;;;;;;0.40;0.32;;;;;;;3.50;89.44;99887.72;4975876;28;96588;-34
2021/12/05 06:28:12;;;;;;;0.95;0.85;;;;;;;3.53;89.69;99898.31;4975298;28;96863;-34
2021/12/05 06:47:03;;;;;;;2.10;0.98;;;;;;;3.42;90.33;99927.41;4975403;28;96578;-35
2021/12/05 06:49:28;;;;;;;0.95;0.68;;;;;;;3.42;89.86;99926.53;4975386;28;96669;-34
2021/12/05 06:51:53;;;;;;;1.65;1.02;;;;;;;3.34;89.96;99921.56;4976280;28;97405;-34
2021/12/05 06:54:19;;;;;;;1.27;0.82;;;;;;;3.39;90.16;99927.56;4976061;28;97827;-35
2021/12/05 06:56:44;;;;;;;0.90;0.77;;;;;;;3.37;90.11;99927.63;4976687;28;96703;-34
2021/12/05 06:59:10;;;;;;;1.00;0.60;;;;;;;3.46;89.77;99945.06;4976988;28;96730;-34
2021/12/05 07:01:35;;;;;;;1.15;0.65;;;;;;;3.49;89.93;99949.41;4975690;28;97489;-35
2021/12/05 07:04:09;;;;;;;2.33;1.25;;;;;;;3.50;89.93;99951.13;4975699;28;112923;-34
2021/12/05 07:06:34;;;;;;;2.03;0.73;;;;;;;3.52;90.43;99954.59;4974405;28;96528;-34
2021/12/05 07:09:07;;;;;;;2.05;0.93;;;;;;;3.54;90.26;99960.75;4976299;28;96750;-34
2021/12/05 07:11:44;;;;;;;1.20;0.80;;;;;;;3.53;89.97;99951.88;4974620;28;100977;-34
2021/12/05 07:21:51;;;;;;;1.35;1.05;;;;;;;3.59;89.90;99970.31;4973531;28;97395;-34
2021/12/05 07:26:53;;;;;;;3.53;2.45;;;;;;;3.60;90.29;99979.22;4976190;28;96625;-34
2021/12/05 07:40:27;;;;;;;2.58;1.33;;;;;;;3.58;90.19;99991.81;4976158;28;96547;-34
2021/12/05 07:43:02;;;;;;;2.70;1.42;;;;;;;3.51;90.67;99988.53;4975918;28;98109;-34
2021/12/05 07:45:35;;;;;;;0.70;0.40;;;;;;;3.51;90.73;99996.56;4974246;28;100657;-34
2021/12/05 07:48:12;;;;;;;1.42;0.98;;;;;;;3.49;90.54;99990.41;4974473;28;96599;-34
2021/12/05 07:50:50;;;;;;;2.30;1.25;;;;;;;3.55;90.47;99998.19;4976270;28;96633;-34
2021/12/05 07:53:31;;;;;;;1.38;0.95;;;;;;;3.54;90.90;100006.28;4975499;28;98044;-34
2021/12/05 07:56:05;;;;;;;1.15;0.65;;;;;;;3.58;90.37;100021.25;4974112;28;100715;-34
2021/12/05 07:58:58;;;;;;;1.13;0.90;;;;;;;3.56;90.48;100015.97;4973876;28;96774;-34
2021/12/05 08:15:16;;;;;;;5.43;1.33;;;;;;;3.58;90.35;100031.97;4975337;28;96965;-34
2021/12/05 08:17:50;;;;;;;2.13;1.38;;;;;;;3.59;90.21;100028.34;4975417;28;97971;-34
2021/12/05 08:20:17;;;;;;;2.67;1.55;;;;;;;3.55;90.31;100030.31;4974019;28;96594;-34
2021/12/05 08:22:43;;;;;;;5.97;1.63;;;;;;;3.59;90.15;100031.88;4973869;28;96928;-34
2021/12/05 08:25:11;;;;;;;3.78;1.52;;;;;;;3.58;90.21;100040.88;4974564;28;98585;-34
2021/12/05 08:27:41;;;;;;;1.55;1.05;;;;;;;3.66;90.34;100039.66;4974702;28;98784;-34
2021/12/05 08:30:09;;;;;;;3.70;1.67;;;;;;;3.67;90.67;100055.66;4973633;28;96642;-34
2021/12/05 08:33:12;;;;;;;4.80;1.80;;;;;;;3.65;90.12;100046.81;4973915;28;97149;-34
2021/12/05 08:40:55;;;;;;;3.47;1.85;;;;;;;3.72;90.36;100053.63;4975242;28;96446;-35
2021/12/05 09:30:06;;;;;;;1.48;1.00;;;;;;;3.97;89.44;100136.41;4977996;28;97064;-34
2021/12/05 10:07:20;;;;;;;0.35;0.28;;;;;;;4.00;89.09;100178.25;4977974;28;96990;-34
2021/12/05 10:12:34;;;;;;;0.30;0.28;;;;;;;3.94;89.49;100179.41;4974188;28;96689;-34
2021/12/05 10:18:55;;;;;;;0.98;0.50;;;;;;;3.95;89.22;100205.25;4975121;28;97261;-34
2021/12/05 10:38:03;;;;;;;0.43;0.35;;;;;;;4.53;88.24;100206.19;4974913;28;97117;-34
2021/12/05 10:40:36;;;;;;;1.42;0.63;;;;;;;4.51;87.97;100208.97;4976558;28;99229;-34
2021/12/05 10:43:08;;;;;;;0.55;0.45;;;;;;;4.49;88.48;100221.56;4959348;28;96620;-34
2021/12/05 10:45:47;;;;;;;0.80;0.40;;;;;;;4.50;88.22;100220.63;4975401;28;97047;-34
2021/12/05 10:48:40;;;;;;;0.82;0.63;;;;;;;4.54;88.15;100232.09;4976690;28;97989;-34
2021/12/05 10:51:07;;;;;;;0.68;0.55;;;;;;;4.68;88.63;100232.31;4976749;28;97805;-34
2021/12/05 10:53:44;;;;;;;0.90;0.60;;;;;;;4.70;87.58;100234.94;4975024;28;96901;-34
2021/12/05 10:56:24;;;;;;;0.98;0.57;;;;;;;4.57;87.89;100242.66;4975261;28;96769;-35
2021/12/05 10:59:03;;;;;;;0.85;0.77;;;;;;;4.51;87.96;100235.78;4974879;28;101617;-34
2021/12/05 11:01:39;;;;;;;0.80;0.73;;;;;;;4.61;88.40;100244.28;4974798;28;101226;-34
2021/12/05 11:04:14;;;;;;;1.00;0.75;;;;;;;4.87;87.48;100240.34;4976517;28;96636;-34
2021/12/05 11:06:41;;;;;;;0.98;0.75;;;;;;;4.86;86.85;100225.19;4975056;28;96745;-34
2021/12/05 11:09:31;;;;;;;1.45;0.68;;;;;;;5.33;86.91;100241.66;4974177;28;100933;-34
2021/12/05 11:12:08;;;;;;;3.20;1.70;;;;;;;5.18;86.46;100231.69;4976097;28;97856;-34
2021/12/05 11:14:41;;;;;;;0.70;0.70;;;;;;;5.04;86.54;100240.41;4976349;28;96602;-34
2021/12/05 11:17:10;;;;;;;5.43;1.27;;;;;;;5.04;87.05;100250.28;4975238;28;96822;-34
2021/12/05 11:19:44;;;;;;;2.20;1.60;;;;;;;5.05;87.24;100247.53;4974510;28;101378;-34
2021/12/05 11:22:17;;;;;;;2.88;1.40;;;;;;;5.00;87.09;100254.91;4975897;28;97851;-34
2021/12/05 11:25:05;;;;;;;2.60;1.50;;;;;;;4.92;87.23;100249.06;4974932;28;96628;-34
2021/12/05 11:27:35;;;;;;;1.05;0.80;;;;;;;4.88;87.38;100234.91;4974922;28;96765;-34
2021/12/05 11:30:09;;;;;;;9.55;1.20;;;;;;;4.93;87.46;100245.41;4974403;28;100935;-34
2021/12/05 11:32:57;;;;;;;1.15;1.05;;;;;;;4.90;87.39;100249.13;4973459;28;99318;-34
2021/12/05 11:35:42;;;;;;;1.60;1.10;;;;;;;4.92;87.87;100253.56;4975584;28;96774;-34
2021/12/05 11:38:25;;;;;;;2.00;1.45;;;;;;;4.87;87.72;100254.63;4974724;28;96702;-34
2021/12/05 11:41:02;;;;;;;5.82;1.40;;;;;;;4.92;87.98;100251.75;4974176;28;101172;-34
2021/12/05 11:43:37;;;;;;;1.92;1.20;;;;;;;4.95;87.84;100253.41;4975513;28;99688;-34
2021/12/05 11:46:10;;;;;;;0.90;0.70;;;;;;;4.99;87.46;100263.91;4974614;28;96668;-34
2021/12/05 11:48:39;;;;;;;2.15;1.63;;;;;;;4.92;87.45;100265.16;4974538;28;96750;-34
2021/12/05 11:51:30;;;;;;;2.05;1.05;;;;;;;4.96;87.40;100265.88;4975046;28;107869;-34
2021/12/05 11:53:55;;;;;;;7.43;2.08;;;;;;;4.99;87.52;100280.03;4974221;28;100867;-34
2021/12/05 11:56:30;;;;;;;8.75;2.13;;;;;;;5.01;87.50;100278.13;4975341;28;96622;-34
2021/12/05 11:59:14;;;;;;;3.92;2.03;;;;;;;5.00;87.40;100281.75;4975870;28;96743;-34
2021/12/05 12:01:56;;;;;;;7.63;1.98;;;;;;;5.04;87.29;100288.72;4972937;28;98944;-34
2021/12/05 12:04:25;;;;;;;3.30;1.65;;;;;;;5.03;87.25;100287.00;4973776;28;101157;-34
2021/12/05 12:07:13;;;;;;;7.68;1.95;;;;;;;5.09;87.39;100296.56;4973900;28;96652;-35
2021/12/05 12:09:40;;;;;;;4.03;2.42;;;;;;;5.10;87.05;100290.22;4974121;28;97596;-34
2021/12/05 12:12:06;;;;;;;2.47;1.65;;;;;;;5.12;86.50;100293.72;4973617;28;100748;-34
2021/12/05 12:14:31;;;;;;;2.10;1.45;;;;;;;5.17;86.55;100297.03;4973821;28;100697;-34
2021/12/05 12:16:58;;;;;;;4.35;2.28;;;;;;;5.19;86.27;100297.84;4975611;28;96522;-35
2021/12/05 12:19:23;;;;;;;7.13;2.15;;;;;;;5.26;86.88;100296.59;4974243;28;96743;-34
2021/12/05 12:21:52;;;;;;;4.97;2.55;;;;;;;5.21;87.01;100298.66;4975059;28;97923;-34
2021/12/05 12:24:18;;;;;;;7.03;3.05;;;;;;;5.28;86.81;100300.09;4973525;28;101275;-35
2021/12/05 12:26:44;;;;;;;4.57;3.03;;;;;;;5.27;87.04;100298.38;4973469;28;96716;-34
2021/12/05 12:29:12;;;;;;;5.43;2.40;;;;;;;5.32;86.29;100308.88;4973625;28;96844;-34
2021/12/05 12:31:41;;;;;;;5.75;3.30;;;;;;;5.35;86.46;100311.41;4974480;28;97948;-34
2021/12/05 12:34:20;;;;;;;12.20;3.78;;;;;;;5.39;86.35;100304.94;4973535;28;101563;-34
2021/12/05 12:36:49;;;;;;;7.10;2.05;;;;;;;5.54;85.82;100317.63;4973798;28;96708;-34
2021/12/05 12:39:18;;;;;;;6.72;2.47;;;;;;;5.57;85.62;100326.47;4973737;28;96877;-34
2021/12/05 12:42:04;;;;;;;12.88;4.03;;;;;;;5.53;86.11;100326.63;4974652;28;99292;-34
2021/12/05 12:44:30;;;;;;;6.50;3.25;;;;;;;5.52;85.80;100337.44;4975311;28;97335;-34
2021/12/05 12:46:58;;;;;;;12.48;2.67;;;;;;;5.50;86.26;100342.88;4974962;28;96495;-34
2021/12/05 12:49:32;;;;;;;8.20;4.30;;;;;;;5.50;86.47;100337.50;4973768;28;96805;-34
2021/12/05 12:52:04;;;;;;;5.88;3.17;;;;;;;5.48;86.14;100341.22;4974154;28;97969;-34
2021/12/05 12:54:44;;;;;;;10.23;3.40;;;;;;;5.41;86.04;100334.41;4974374;28;98189;-34
2021/12/05 12:57:23;;;;;;;16.85;4.95;;;;;;;5.40;85.82;100338.03;4974815;28;96497;-34
2021/12/05 12:59:55;;;;;;;10.68;4.15;;;;;;;5.39;86.52;100334.50;4974757;28;96691;-34
2021/12/05 13:02:30;;;;;;;6.30;3.58;;;;;;;5.32;86.61;100341.09;4972916;28;101577;-34
2021/12/05 13:07:21;;;;;;;6.88;4.13;;;;;;;5.39;86.71;100358.66;4974543;28;98185;-34
2021/12/05 13:11:04;;;;;;;17.50;4.43;;;;;;;5.40;86.61;100364.91;4975430;28;96584;-34
2021/12/05 13:13:32;;;;;;;7.78;3.58;;;;;;;5.33;86.23;100357.13;4972887;28;102121;-34
2021/12/05 13:16:11;;;;;;;4.75;2.92;;;;;;;5.25;85.93;100350.41;4972952;28;100981;-34
2021/12/05 13:18:40;;;;;;;5.63;3.53;;;;;;;5.31;86.27;100375.16;4974517;28;96595;-34
2021/12/05 13:21:09;;;;;;;10.35;4.07;;;;;;;5.31;86.44;100363.50;4973371;28;96920;-34
2021/12/05 13:23:38;;;;;;;6.22;2.95;;;;;;;5.29;86.42;100358.25;4972884;28;104004;-34
2021/12/05 13:26:26;;;;;;;7.43;4.22;;;;;;;5.37;86.47;100378.47;4974255;28;98860;-34
2021/12/05 13:28:57;;;;;;;12.55;3.80;;;;;;;5.35;86.71;100373.19;4972908;28;96696;-34
2021/12/05 13:31:28;;;;;;;15.40;5.22;;;;;;;5.40;86.65;100376.50;4973014;28;96927;-34
2021/12/05 13:34:24;;;;;;;9.67;3.87;;;;;;;5.46;86.60;100392.34;4974339;28;97966;-34
2021/12/05 13:36:51;;;;;;;7.47;3.10;;;;;;;5.45;86.48;100390.59;4973303;28;100865;-34
2021/12/05 13:39:48;;;;;;;15.70;4.40;;;;;;;5.46;86.14;100388.78;4973060;28;96520;-34
2021/12/05 13:42:22;;;;;;;8.57;4.70;;;;;;;5.42;85.89;100393.41;4974786;28;96615;-35
2021/12/05 13:44:56;;;;;;;15.80;4.68;;;;;;;5.41;86.14;100396.16;4973427;28;99877;-35
2021/12/05 13:47:29;;;;;;;12.15;4.97;;;;;;;5.38;86.61;100394.50;4973753;28;104584;-35
2021/12/05 13:49:56;;;;;;;16.60;5.10;;;;;;;5.31;86.60;100390.38;4972910;28;96619;-34
2021/12/05 13:52:55;;;;;;;13.95;7.20;;;;;;;5.37;86.43;100403.50;4972801;28;96908;-34
2021/12/05 13:55:40;;;;;;;16.98;5.22;;;;;;;5.36;86.45;100411.63;4976340;28;97894;-35
2021/12/05 13:58:38;;;;;;;12.80;4.70;;;;;;;5.32;86.42;100409.09;4975775;28;102328;-34
2021/12/05 14:01:29;;;;;;;15.30;7.72;;;;;;;5.28;86.30;100414.69;4975838;28;96793;-34
2021/12/05 14:03:57;;;;;;;15.98;6.05;;;;;;;5.32;86.30;100418.97;4978107;28;96860;-34
2021/12/05 14:06:37;;;;;;;11.27;5.63;;;;;;;5.27;86.15;100412.97;4977201;28;98130;-34
2021/12/05 14:09:26;;;;;;;15.50;6.60;;;;;;;5.24;86.59;100418.44;4975695;28;100995;-34
2021/12/05 14:12:18;;;;;;;10.93;4.90;;;;;;;5.30;86.21;100431.59;4975384;28;96666;-34
2021/12/05 14:14:50;;;;;;;11.93;4.50;;;;;;;5.25;86.11;100442.56;4975859;28;96671;-34
2021/12/05 14:17:21;;;;;;;8.20;3.85;;;;;;;5.24;86.00;100451.56;4960222;28;101273;-34
2021/12/05 14:19:51;;;;;;;9.27;5.40;;;;;;;5.23;85.86;100459.69;4975584;28;101120;-34
2021/12/05 14:22:19;;;;;;;9.55;5.50;;;;;;;5.22;86.48;100455.22;4975618;28;96617;-34
2021/12/05 14:24:48;;;;;;;10.20;4.35;;;;;;;5.28;86.35;100465.72;4975785;28;96847;-35
2021/12/05 14:27:18;;;;;;;14.77;5.03;;;;;;;5.25;86.51;100472.09;4975424;28;100765;-34
2021/12/05 14:29:46;;;;;;;13.57;5.55;;;;;;;5.24;86.69;100473.03;4975393;28;100780;-34
2021/12/05 14:32:23;;;;;;;12.43;5.50;;;;;;;5.21;86.26;100483.91;4975455;28;96610;-35
2021/12/05 14:34:59;;;;;;;8.60;4.88;;;;;;;5.14;86.32;100479.75;4976837;28;96818;-34
2021/12/05 14:37:27;;;;;;;15.65;6.45;;;;;;;5.15;86.10;100489.56;4974530;28;104743;-34
2021/12/05 14:39:59;;;;;;;20.65;7.10;;;;;;;5.20;86.44;100495.59;4975154;28;100885;-35
2021/12/05 14:42:27;;;;;;;6.82;3.47;;;;;;;5.23;86.44;100513.38;4976815;28;96584;-35
2021/12/05 14:44:57;;;;;;;14.35;4.95;;;;;;;5.18;87.00;100512.72;4975347;28;96801;-35
2021/12/05 14:47:27;;;;;;;18.17;7.80;;;;;;;5.20;86.50;100519.75;4975102;28;100837;-35
2021/12/05 14:50:00;;;;;;;15.93;6.22;;;;;;;5.16;86.62;100511.91;4976520;28;97399;-34
2021/12/05 14:52:32;;;;;;;16.85;5.22;;;;;;;5.15;87.10;100529.84;4975156;28;96656;-34
2021/12/05 14:55:00;;;;;;;15.75;6.55;;;;;;;5.18;86.61;100535.06;4977065;28;96824;-34
2021/12/05 14:57:28;;;;;;;11.13;5.53;;;;;;;5.19;86.95;100535.94;4974789;28;100943;-35
2021/12/05 15:00:04;;;;;;;14.20;4.65;;;;;;;5.09;86.59;100530.97;4974753;28;100947;-35
2021/12/05 15:02:29;;;;;;;11.07;4.97;;;;;;;5.18;86.65;100544.94;4974412;28;96725;-35
2021/12/05 15:04:55;;;;;;;10.95;6.20;;;;;;;5.17;86.83;100560.16;4976409;28;96805;-35
2021/12/05 15:07:24;;;;;;;11.20;4.93;;;;;;;5.14;86.81;100567.47;4976214;28;97837;-35
2021/12/05 15:09:53;;;;;;;10.32;4.88;;;;;;;5.10;86.94;100566.72;4974786;28;100890;-35
2021/12/05 15:12:23;;;;;;;9.50;4.25;;;;;;;5.14;86.96;100567.47;4974926;28;96862;-34
2021/12/05 15:14:52;;;;;;;11.90;6.53;;;;;;;5.16;87.14;100579.91;4975031;28;96764;-35
2021/12/05 15:17:27;;;;;;;8.85;5.35;;;;;;;5.09;87.19;100575.72;4975865;28;99303;-34
2021/12/05 15:19:56;;;;;;;8.73;3.45;;;;;;;5.13;87.29;100585.41;4976514;28;97350;-34
2021/12/05 15:22:22;;;;;;;11.02;5.18;;;;;;;5.16;87.33;100593.31;4958654;28;96797;-35
2021/12/05 15:24:51;;;;;;;9.13;5.40;;;;;;;5.08;87.23;100582.91;4974613;28;96921;-34
2021/12/05 15:27:19;;;;;;;8.20;4.93;;;;;;;5.11;87.22;100595.34;4975169;28;99436;-34
2021/12/05 15:29:54;;;;;;;9.90;4.57;;;;;;;5.07;87.40;100602.63;4974248;28;100890;-34
2021/12/05 15:32:25;;;;;;;13.05;5.32;;;;;;;5.10;87.03;100621.31;4974677;28;96754;-34
2021/12/05 15:34:53;;;;;;;11.88;5.68;;;;;;;5.10;86.98;100618.63;4974602;28;96785;-35
2021/12/05 15:37:19;;;;;;;9.73;5.35;;;;;;;5.10;87.27;100633.84;4975577;28;99496;-34
2021/12/05 15:39:47;;;;;;;15.60;6.32;;;;;;;5.08;87.35;100636.59;4974187;28;100767;-34
2021/12/05 15:42:26;;;;;;;12.32;5.30;;;;;;;5.05;87.24;100639.44;4974506;28;96551;-34
2021/12/05 15:44:54;;;;;;;11.35;4.07;;;;;;;5.02;87.18;100644.03;4975335;28;96606;-34
2021/12/05 15:47:32;;;;;;;13.05;6.00;;;;;;;5.05;87.16;100647.47;4974033;28;101017;-34
2021/12/05 15:50:11;;;;;;;9.55;6.28;;;;;;;5.02;87.14;100642.22;4974065;28;101143;-34
2021/12/05 15:52:36;;;;;;;10.43;4.43;;;;;;;5.01;87.18;100650.34;4973859;28;96621;-34
2021/12/05 15:55:07;;;;;;;10.18;5.22;;;;;;;5.00;87.61;100640.53;4975714;28;96775;-34
2021/12/05 15:57:36;;;;;;;12.88;5.72;;;;;;;5.01;87.49;100648.53;4974053;28;101459;-34
2021/12/05 16:00:09;;;;;;;9.80;5.45;;;;;;;4.95;87.15;100646.09;4973738;28;100818;-34
2021/12/05 16:02:35;;;;;;;8.93;4.95;;;;;;;4.97;87.19;100665.69;4975261;28;96718;-34
2021/12/05 16:05:00;;;;;;;9.63;5.18;;;;;;;5.01;87.65;100667.34;4975624;28;97584;-34
2021/12/05 16:07:28;;;;;;;6.85;3.90;;;;;;;4.97;87.63;100670.19;4975167;28;99214;-34
2021/12/05 16:10:09;;;;;;;11.73;6.30;;;;;;;5.01;87.32;100687.94;4974272;28;100875;-34
2021/12/05 16:12:38;;;;;;;16.25;5.43;;;;;;;4.94;87.52;100690.00;4973907;28;96754;-34
2021/12/05 16:15:04;;;;;;;15.25;7.63;;;;;;;4.96;87.75;100696.19;4975437;28;96716;-34
2021/12/05 16:17:31;;;;;;;9.50;5.32;;;;;;;4.90;87.54;100691.91;4973262;28;101561;-35
2021/12/05 16:20:24;;;;;;;13.57;6.18;;;;;;;4.94;87.37;100702.53;4973073;28;101377;-34
2021/12/05 16:22:56;;;;;;;;;;;;;;;4.90;87.36;100709.84;4958152;28;96651;-34
2021/12/05 16:25:23;;;;;;;2.15;1.35;;;;;;;4.77;87.00;100706.78;4975565;28;96747;-35
2021/12/05 16:27:54;;;;;;;4.47;2.25;;;;;;;4.80;87.48;100714.69;4973519;28;100758;-34
2021/12/05 16:30:25;;;;;;;6.18;3.53;;;;;;;4.75;86.96;100719.38;4973724;28;100671;-34
2021/12/05 16:32:51;;;;;;;9.67;4.50;;;;;;;4.79;86.87;100726.38;4973889;28;96603;-34
2021/12/05 16:35:53;;;;;;;7.32;3.60;;;;;;;4.80;87.22;100729.94;4975586;28;96775;-34
2021/12/05 16:38:30;;;;;;;;;;;;;;;4.79;86.91;100733.53;4974930;28;97996;-34
2021/12/05 16:41:00;;;;;;;5.32;2.70;;;;;;;4.68;86.90;100725.91;4973637;28;100681;-34
2021/12/05 16:43:28;;;;;;;9.15;5.25;;;;;;;4.64;87.18;100725.16;4973235;28;96631;-34
2021/12/05 16:46:08;;;;;;;8.40;5.00;;;;;;;4.68;86.92;100742.88;4973493;28;96867;-34
2021/12/05 16:48:35;;;;;;;8.13;3.70;;;;;;;4.64;87.06;100735.88;4975204;28;97300;-34
2021/12/05 16:51:10;;;;;;;6.28;4.00;;;;;;;4.64;87.06;100741.25;4974368;28;102815;-34
2021/12/05 16:53:40;;;;;;;7.93;3.78;;;;;;;4.64;87.50;100756.47;4973334;28;96589;-34
2021/12/05 16:56:06;;;;;;;10.20;5.07;;;;;;;4.63;87.21;100760.97;4973595;28;96762;-34
2021/12/05 16:58:31;;;;;;;11.68;4.00;;;;;;;4.61;87.55;100765.50;4974677;28;98079;-34
2021/12/05 17:00:57;;;;;;;5.82;4.00;;;;;;;4.67;86.71;100788.53;4974504;28;97528;-34
2021/12/05 17:03:26;;;;;;;8.50;3.78;;;;;;;4.62;87.20;100786.06;4974986;28;96575;-34